Terminal Aerodrome Forecast
Issued by NWS

Home | Current Version | Previous Version | Text Only | Print | Product List | Glossary On
Versions: 1 2 3 4 5 6 7 8 9 10 11 12 13 14 15 16
000
FTUS43 KIND 020500
TAFBMG
TAF
KBMG 020520Z 0206/0306 31007KT P6SM SCT020 OVC100
      TEMPO 0206/0209 BKN020
     FM020900 33005KT P6SM SCT025 BKN150
     FM021600 06005KT P6SM SCT025 BKN150
     FM022300 08005KT P6SM OVC100
      AMD LTD TO CLD VIS AND WIND TIL 021400=

USA.gov is the U.S. government's official web portal to all federal, state and local government web resources and services.